Time;durP1;ratioP1;P1;durP2;ratioP2;P2;SDS_P1;SDS_P2;PMS_P1;PMS_P2;Temp;Humidity;BMP_temperature;BMP_pressure;BME280_temperature;BME280_humidity;BME280_pressure;Samples;Min_cycle;Max_cycle;Signal;HPM_P1;HPM_P2
2021/07/16 00:01:54;;;;;;;2.60;1.75;;;20.00;84.10;;;;;;10173508;28;20052;-53
2021/07/16 00:06:45;;;;;;;2.22;1.35;;;20.10;84.10;;;;;;10173841;28;20059;-52
2021/07/16 00:11:36;;;;;;;3.17;1.77;;;20.00;84.50;;;;;;10173546;28;20101;-50
2021/07/16 00:16:27;;;;;;;2.63;1.42;;;20.00;84.60;;;;;;10173347;28;20027;-53
2021/07/16 00:21:17;;;;;;;2.72;1.50;;;20.00;84.70;;;;;;10173972;28;20044;-50
2021/07/16 00:26:10;;;;;;;2.58;2.00;;;19.90;85.00;;;;;;10173288;28;20036;-48
2021/07/16 00:31:01;;;;;;;1.83;1.42;;;19.90;85.10;;;;;;10173326;28;20398;-49
2021/07/16 00:35:51;;;;;;;2.22;1.50;;;20.10;84.80;;;;;;10173139;28;20039;-50
2021/07/16 00:40:42;;;;;;;3.20;1.70;;;20.20;84.70;;;;;;10173373;28;20036;-49
2021/07/16 00:45:33;;;;;;;1.83;1.48;;;20.20;84.60;;;;;;10173160;28;20043;-51
2021/07/16 00:50:27;;;;;;;2.63;1.30;;;20.20;85.00;;;;;;10177885;28;20029;-54
2021/07/16 00:55:18;;;;;;;2.63;1.70;;;20.10;85.10;;;;;;10180664;28;20071;-50
2021/07/16 01:00:11;;;;;;;1.45;1.20;;;20.10;85.40;;;;;;10180303;28;20028;-53
2021/07/16 01:05:03;;;;;;;3.85;2.22;;;20.00;85.10;;;;;;10179940;28;20456;-52
2021/07/16 01:09:54;;;;;;;2.42;1.33;;;20.00;85.60;;;;;;10180061;28;20039;-53
2021/07/16 01:14:46;;;;;;;3.38;1.52;;;20.00;85.70;;;;;;10180127;28;20121;-54
2021/07/16 01:19:59;;;;;;;3.60;1.65;;;20.00;85.50;;;;;;10179668;28;20028;-53
2021/07/16 01:24:51;;;;;;;2.50;1.35;;;20.00;85.70;;;;;;10179849;28;20078;-55
2021/07/16 01:29:42;;;;;;;1.50;1.30;;;20.00;85.60;;;;;;10140520;28;20505;-53
2021/07/16 01:34:33;;;;;;;3.67;1.42;;;20.00;85.60;;;;;;10138587;28;20044;-55
2021/07/16 01:39:23;;;;;;;1.92;1.25;;;20.00;85.70;;;;;;10176140;28;20383;-51
2021/07/16 01:44:14;;;;;;;2.90;1.50;;;19.90;85.80;;;;;;10179469;28;20422;-53
2021/07/16 01:49:05;;;;;;;2.90;1.30;;;19.90;85.80;;;;;;10178512;28;20473;-52
2021/07/16 01:53:58;;;;;;;2.17;1.20;;;20.00;85.70;;;;;;10178333;28;20059;-53
2021/07/16 01:58:48;;;;;;;2.75;1.65;;;20.10;85.50;;;;;;10177806;28;20035;-52
2021/07/16 02:03:39;;;;;;;2.85;1.35;;;19.90;85.80;;;;;;10178010;28;20066;-51
2021/07/16 02:08:31;;;;;;;4.32;1.25;;;19.80;85.80;;;;;;10177908;28;20036;-53
2021/07/16 02:13:22;;;;;;;3.00;1.25;;;19.80;85.80;;;;;;10177396;28;20114;-53
2021/07/16 02:18:14;;;;;;;2.58;1.80;;;19.80;86.00;;;;;;10177152;28;20032;-53
2021/07/16 02:23:17;;;;;;;1.42;1.27;;;19.80;86.00;;;;;;10177106;28;20039;-49
2021/07/16 02:28:16;;;;;;;3.33;1.13;;;19.70;86.60;;;;;;10177243;28;20032;-51
2021/07/16 02:33:07;;;;;;;1.95;1.40;;;19.70;86.60;;;;;;10158515;28;20040;-49
2021/07/16 02:37:59;;;;;;;2.72;1.65;;;19.80;86.40;;;;;;10158364;28;20036;-50
2021/07/16 02:42:50;;;;;;;3.58;1.73;;;19.80;86.20;;;;;;10176468;28;20028;-52
2021/07/16 02:47:42;;;;;;;3.65;1.42;;;19.80;86.70;;;;;;10176709;28;20024;-50
2021/07/16 02:52:32;;;;;;;3.22;1.95;;;19.80;86.50;;;;;;10176737;28;20072;-54
2021/07/16 02:57:23;;;;;;;4.65;1.75;;;19.70;86.80;;;;;;10176437;28;20434;-49
2021/07/16 03:02:14;;;;;;;2.15;1.40;;;19.80;86.80;;;;;;10175630;28;20101;-53
2021/07/16 03:07:04;;;;;;;3.85;1.60;;;19.80;86.50;;;;;;10174433;28;20411;-49
2021/07/16 03:11:55;;;;;;;4.43;2.10;;;19.90;86.70;;;;;;10174783;28;20052;-51
2021/07/16 03:16:46;;;;;;;4.75;2.53;;;19.90;86.60;;;;;;10175115;28;20032;-50
2021/07/16 03:21:36;;;;;;;3.15;1.30;;;19.90;86.60;;;;;;10175748;28;20036;-49
2021/07/16 03:26:27;;;;;;;1.45;1.17;;;19.90;86.60;;;;;;10174939;28;20024;-49
2021/07/16 03:31:17;;;;;;;3.50;1.30;;;19.90;86.70;;;;;;10174740;28;20101;-50
2021/07/16 03:36:08;;;;;;;2.47;1.20;;;19.70;86.90;;;;;;10173551;28;20036;-51
2021/07/16 03:41:01;;;;;;;1.85;1.20;;;19.70;87.10;;;;;;10174441;28;20509;-51
2021/07/16 03:45:52;;;;;;;3.40;1.55;;;19.70;86.90;;;;;;10174733;28;20070;-54
2021/07/16 03:50:43;;;;;;;2.03;1.38;;;19.70;86.80;;;;;;10174670;28;20111;-50
2021/07/16 03:55:33;;;;;;;3.97;1.23;;;19.60;87.20;;;;;;10174349;28;20123;-50
2021/07/16 04:00:28;;;;;;;6.20;2.55;;;19.60;87.10;;;;;;10174457;28;20143;-49
2021/07/16 04:05:19;;;;;;;2.65;1.77;;;19.60;87.10;;;;;;10173810;28;20100;-49
2021/07/16 04:10:10;;;;;;;3.63;1.58;;;19.60;87.20;;;;;;10174458;28;20127;-49
2021/07/16 04:15:01;;;;;;;3.42;1.58;;;19.60;87.20;;;;;;10173699;28;20517;-48
2021/07/16 04:19:53;;;;;;;2.42;1.40;;;19.60;87.30;;;;;;10173595;28;20029;-52
2021/07/16 04:24:45;;;;;;;4.13;2.20;;;19.60;87.50;;;;;;10179159;28;20181;-53
2021/07/16 04:29:36;;;;;;;3.80;1.92;;;19.70;87.60;;;;;;10181752;28;20020;-51
2021/07/16 04:34:32;;;;;;;3.22;2.00;;;19.80;87.60;;;;;;10182063;28;20075;-53
2021/07/16 04:39:23;;;;;;;2.95;2.03;;;19.70;87.60;;;;;;10181383;28;20466;-48
2021/07/16 04:44:14;;;;;;;4.15;1.92;;;19.90;87.50;;;;;;10181175;28;20121;-50
2021/07/16 04:49:06;;;;;;;6.20;3.67;;;19.90;87.70;;;;;;10181064;28;20547;-51
2021/07/16 04:53:58;;;;;;;2.58;1.67;;;19.90;87.50;;;;;;10180742;28;20039;-51
2021/07/16 04:58:49;;;;;;;3.08;2.28;;;19.80;87.90;;;;;;10180473;28;20036;-49
2021/07/16 05:03:40;;;;;;;4.82;2.80;;;19.90;88.00;;;;;;10180789;28;20036;-51
2021/07/16 05:08:31;;;;;;;3.70;2.97;;;20.00;87.60;;;;;;10178489;28;20636;-54
2021/07/16 05:13:21;;;;;;;4.03;2.42;;;20.00;87.70;;;;;;10180496;28;20040;-53
2021/07/16 05:18:12;;;;;;;3.45;2.60;;;20.20;87.50;;;;;;10180566;28;20028;-55
2021/07/16 05:23:03;;;;;;;5.43;2.88;;;20.20;87.30;;;;;;10180018;28;20040;-52
2021/07/16 05:27:53;;;;;;;6.28;3.42;;;20.30;87.30;;;;;;10179987;28;20028;-51
2021/07/16 05:32:44;;;;;;;8.25;4.25;;;20.30;87.10;;;;;;10180134;28;20064;-48
2021/07/16 05:37:35;;;;;;;5.30;2.97;;;20.20;87.80;;;;;;10178587;28;20092;-48
2021/07/16 05:42:26;;;;;;;3.67;2.80;;;20.30;87.40;;;;;;10178902;28;20040;-49
2021/07/16 05:47:16;;;;;;;3.92;2.75;;;20.30;86.90;;;;;;10179221;28;20089;-49
2021/07/16 05:52:07;;;;;;;6.60;3.80;;;20.30;87.10;;;;;;10179086;28;20135;-54
2021/07/16 05:56:58;;;;;;;6.50;3.88;;;20.30;87.00;;;;;;10160695;28;20050;-51
2021/07/16 06:01:48;;;;;;;7.00;3.70;;;20.40;86.70;;;;;;10177627;28;20223;-53
2021/07/16 06:06:39;;;;;;;5.03;3.10;;;20.40;86.80;;;;;;10177614;28;20051;-51
2021/07/16 06:11:31;;;;;;;5.70;3.28;;;20.30;86.70;;;;;;10177991;28;20032;-49
2021/07/16 06:16:21;;;;;;;5.75;3.92;;;20.40;86.40;;;;;;10175261;28;20044;-53
2021/07/16 06:21:12;;;;;;;5.38;3.00;;;20.30;86.50;;;;;;10177033;28;20103;-52
2021/07/16 06:26:03;;;;;;;6.32;3.88;;;20.30;86.90;;;;;;10177339;28;20024;-53
2021/07/16 06:30:53;;;;;;;5.78;3.35;;;20.30;86.30;;;;;;10176689;28;20494;-53
2021/07/16 06:35:44;;;;;;;5.28;3.10;;;20.30;86.30;;;;;;10176964;28;20046;-53
2021/07/16 06:40:35;;;;;;;5.38;3.63;;;20.50;86.40;;;;;;10176454;28;20032;-49
2021/07/16 06:45:25;;;;;;;5.72;3.75;;;20.60;86.10;;;;;;10175463;28;20031;-51
2021/07/16 06:50:16;;;;;;;7.45;4.05;;;20.80;86.00;;;;;;10176631;28;20024;-51
2021/07/16 06:55:07;;;;;;;5.57;4.00;;;20.70;85.40;;;;;;10175979;28;20036;-54
2021/07/16 06:59:58;;;;;;;5.47;4.00;;;20.70;85.30;;;;;;10175595;28;20235;-51
2021/07/16 07:04:49;;;;;;;6.07;4.97;;;21.00;85.30;;;;;;10157564;28;20619;-52
2021/07/16 07:09:46;;;;;;;5.30;4.00;;;21.10;85.10;;;;;;10128979;28;20698;-53
2021/07/16 07:14:37;;;;;;;6.20;3.72;;;21.40;84.20;;;;;;10128845;28;20330;-49
2021/07/16 07:19:27;;;;;;;4.30;3.75;;;21.40;84.10;;;;;;10127854;28;20025;-51
2021/07/16 07:24:18;;;;;;;4.20;3.70;;;21.40;83.50;;;;;;10126565;28;20036;-53
2021/07/16 07:29:08;;;;;;;5.70;4.25;;;21.20;83.60;;;;;;10126536;28;20036;-52
2021/07/16 07:34:00;;;;;;;3.58;3.05;;;21.20;83.40;;;;;;10123727;28;20089;-51
2021/07/16 07:38:50;;;;;;;4.32;2.72;;;21.10;83.40;;;;;;10125917;28;20467;-52
2021/07/16 07:43:41;;;;;;;2.70;2.33;;;21.40;82.90;;;;;;10126055;28;20042;-56
2021/07/16 07:48:32;;;;;;;4.38;2.72;;;21.60;82.30;;;;;;10126476;28;20033;-58
2021/07/16 07:53:24;;;;;;;6.03;3.53;;;21.90;81.70;;;;;;10126704;28;20031;-55
2021/07/16 07:58:15;;;;;;;4.18;2.15;;;22.30;81.00;;;;;;10126731;28;20021;-54
2021/07/16 08:03:05;;;;;;;2.75;2.17;;;22.20;80.80;;;;;;10125697;28;20028;-55
2021/07/16 08:07:56;;;;;;;2.13;1.60;;;22.40;80.60;;;;;;10124596;28;20074;-53
2021/07/16 08:12:47;;;;;;;1.95;1.75;;;22.40;80.20;;;;;;10126336;28;20631;-53
2021/07/16 08:17:38;;;;;;;2.25;1.73;;;22.10;80.00;;;;;;10117995;28;20071;-51
2021/07/16 08:22:29;;;;;;;2.00;1.75;;;21.90;79.80;;;;;;10096480;28;20021;-53
2021/07/16 08:27:19;;;;;;;3.13;2.00;;;21.80;79.70;;;;;;10096842;28;20115;-50
2021/07/16 08:32:10;;;;;;;5.05;1.80;;;21.90;79.30;;;;;;10097756;28;20033;-54
2021/07/16 08:37:01;;;;;;;2.47;2.03;;;22.30;78.90;;;;;;10099371;28;20059;-52
2021/07/16 08:41:52;;;;;;;4.50;2.30;;;22.70;77.40;;;;;;10098350;28;20036;-54
2021/07/16 08:46:47;;;;;;;3.22;2.28;;;22.80;77.10;;;;;;10098225;28;20468;-56
2021/07/16 08:51:40;;;;;;;3.15;2.17;;;22.60;77.20;;;;;;10097874;28;20028;-52
2021/07/16 08:56:35;;;;;;;3.45;2.50;;;22.60;77.00;;;;;;10097712;28;20053;-53
2021/07/16 09:01:26;;;;;;;3.20;2.90;;;22.80;76.20;;;;;;10097516;28;20021;-53
2021/07/16 09:06:16;;;;;;;3.53;2.67;;;23.10;75.90;;;;;;10097313;28;20044;-55
2021/07/16 09:11:07;;;;;;;3.88;2.63;;;23.00;75.50;;;;;;10096741;28;20425;-50
2021/07/16 09:16:00;;;;;;;3.80;2.10;;;23.00;75.40;;;;;;10093058;28;20098;-55
2021/07/16 09:21:03;;;;;;;3.30;1.95;;;23.10;74.80;;;;;;10096575;28;20029;-52
2021/07/16 09:26:12;;;;;;;2.70;1.85;;;23.10;74.10;;;;;;10097277;28;20079;-58
2021/07/16 09:31:27;;;;;;;2.25;2.05;;;23.10;74.00;;;;;;10096005;28;20029;-58
2021/07/16 09:36:25;;;;;;;2.47;2.03;;;23.10;73.20;;;;;;10096681;28;20036;-50
2021/07/16 09:41:16;;;;;;;2.05;1.80;;;23.00;73.40;;;;;;10094502;28;20072;-59
2021/07/16 09:46:07;;;;;;;3.13;1.58;;;23.10;73.10;;;;;;10094479;28;20087;-56
2021/07/16 09:51:20;;;;;;;1.98;1.50;;;23.20;72.80;;;;;;10096306;28;20503;-58
2021/07/16 09:56:22;;;;;;;1.70;1.60;;;23.20;71.10;;;;;;10096078;28;20195;-57
2021/07/16 10:01:13;;;;;;;2.78;2.10;;;23.20;72.20;;;;;;10095435;28;20033;-54
2021/07/16 10:06:05;;;;;;;2.83;2.00;;;23.30;72.00;;;;;;10095099;28;20103;-55
2021/07/16 10:10:55;;;;;;;3.13;1.98;;;23.50;71.50;;;;;;10095000;28;20515;-51
2021/07/16 10:15:47;;;;;;;2.45;1.70;;;23.90;71.00;;;;;;10094909;28;20023;-55
2021/07/16 10:20:39;;;;;;;2.42;1.85;;;24.00;70.70;;;;;;10094747;28;20029;-53
2021/07/16 10:25:30;;;;;;;2.03;1.83;;;24.30;70.20;;;;;;10094830;28;20025;-52
2021/07/16 10:30:22;;;;;;;5.00;2.20;;;24.20;70.10;;;;;;10095350;28;20033;-58
2021/07/16 10:35:37;;;;;;;2.70;2.03;;;24.30;69.90;;;;;;10094475;28;20460;-55
2021/07/16 10:40:41;;;;;;;2.20;2.00;;;24.80;68.70;;;;;;10090196;28;20045;-54
2021/07/16 10:45:39;;;;;;;3.93;2.30;;;24.80;68.40;;;;;;10094421;28;20025;-54
2021/07/16 10:50:32;;;;;;;3.80;2.05;;;24.80;68.80;;;;;;10094212;28;20108;-56
2021/07/16 10:55:28;;;;;;;2.97;2.10;;;24.90;69.00;;;;;;10093584;28;20103;-57
2021/07/16 11:00:37;;;;;;;2.28;2.08;;;25.00;67.80;;;;;;10093432;28;20096;-54
2021/07/16 11:05:31;;;;;;;2.55;2.10;;;25.10;66.70;;;;;;10093652;28;20041;-58
2021/07/16 11:10:47;;;;;;;3.80;2.33;;;25.50;67.20;;;;;;10093535;28;20108;-54
2021/07/16 11:15:38;;;;;;;2.63;1.85;;;25.80;66.00;;;;;;10094302;28;20476;-50
2021/07/16 11:20:32;;;;;;;2.53;1.98;;;25.80;66.00;;;;;;10093549;28;20033;-55
2021/07/16 11:25:23;;;;;;;2.20;2.00;;;25.60;65.30;;;;;;10092965;28;20422;-52
2021/07/16 11:30:14;;;;;;;3.15;2.10;;;25.50;65.50;;;;;;10092846;28;20068;-53
2021/07/16 11:35:07;;;;;;;2.38;1.88;;;25.60;65.30;;;;;;10092680;28;20017;-53
2021/07/16 11:40:07;;;;;;;2.47;1.90;;;25.70;65.30;;;;;;10092571;28;20112;-54
2021/07/16 11:44:58;;;;;;;2.85;2.03;;;25.70;64.00;;;;;;10092556;28;20025;-52
2021/07/16 11:49:59;;;;;;;2.38;1.90;;;25.10;65.00;;;;;;10091079;28;20063;-51
2021/07/16 11:54:51;;;;;;;3.28;2.33;;;24.60;65.60;;;;;;10097672;28;20025;-55
2021/07/16 11:59:51;;;;;;;2.10;1.83;;;24.50;65.90;;;;;;10099965;28;20021;-56
2021/07/16 12:04:43;;;;;;;1.75;1.60;;;24.60;65.10;;;;;;10099949;28;20028;-55
2021/07/16 12:09:33;;;;;;;3.28;2.42;;;24.80;64.60;;;;;;10099689;28;20535;-56
2021/07/16 12:14:24;;;;;;;3.83;2.53;;;24.90;64.50;;;;;;10099909;28;20174;-53
2021/07/16 12:19:15;;;;;;;3.38;2.20;;;25.00;64.70;;;;;;10099714;28;20554;-51
2021/07/16 12:24:05;;;;;;;2.25;2.00;;;24.50;65.80;;;;;;10098087;28;20178;-53
2021/07/16 12:29:09;;;;;;;2.38;2.03;;;24.10;67.30;;;;;;10100003;28;20045;-54
2021/07/16 12:34:01;;;;;;;3.13;2.47;;;24.20;68.20;;;;;;10099108;28;20020;-51
2021/07/16 12:38:52;;;;;;;3.20;2.70;;;24.80;67.80;;;;;;10098698;28;20033;-54
2021/07/16 12:43:43;;;;;;;2.65;2.28;;;26.00;67.90;;;;;;10098682;28;20231;-52
2021/07/16 12:48:36;;;;;;;2.13;1.90;;;27.00;67.80;;;;;;10098747;28;20574;-52
2021/07/16 12:53:35;;;;;;;1.92;1.73;;;27.60;66.90;;;;;;10098671;28;20025;-52
2021/07/16 12:58:34;;;;;;;2.67;1.83;;;28.10;66.20;;;;;;10098113;28;20071;-53
2021/07/16 13:03:24;;;;;;;2.65;1.70;;;29.10;63.10;;;;;;10098358;28;20092;-51
2021/07/16 13:08:24;;;;;;;5.88;2.08;;;28.70;62.10;;;;;;10096953;28;20061;-57
2021/07/16 13:13:27;;;;;;;2.90;2.15;;;26.80;63.30;;;;;;10095921;28;20021;-53
2021/07/16 13:18:17;;;;;;;3.90;2.15;;;25.80;64.30;;;;;;10097841;28;20032;-55
2021/07/16 13:23:08;;;;;;;3.03;2.20;;;29.30;59.80;;;;;;10097319;28;20029;-51
2021/07/16 13:27:59;;;;;;;2.13;1.92;;;30.90;57.60;;;;;;10096689;28;20403;-54
2021/07/16 13:32:49;;;;;;;1.88;1.65;;;31.10;56.60;;;;;;10096748;28;20048;-49
2021/07/16 13:37:42;;;;;;;1.92;1.70;;;31.90;55.00;;;;;;10096681;28;20231;-53
2021/07/16 13:42:32;;;;;;;1.83;1.73;;;32.80;53.30;;;;;;10095890;28;20017;-56
2021/07/16 13:47:23;;;;;;;4.23;2.20;;;33.40;51.10;;;;;;10089808;28;20423;-54
2021/07/16 13:52:14;;;;;;;2.33;2.13;;;34.10;49.70;;;;;;10095742;28;20936;-52
2021/07/16 13:57:05;;;;;;;3.85;2.40;;;34.40;48.70;;;;;;10094681;28;20040;-56
2021/07/16 14:01:56;;;;;;;3.95;2.17;;;34.60;48.20;;;;;;10095624;28;20021;-53
2021/07/16 14:06:47;;;;;;;2.45;2.25;;;34.50;47.90;;;;;;10093444;28;20585;-55
2021/07/16 14:11:37;;;;;;;2.40;2.20;;;34.90;46.50;;;;;;10095581;28;20037;-55
2021/07/16 14:16:28;;;;;;;2.27;2.10;;;33.60;47.80;;;;;;10092552;28;20039;-55
2021/07/16 14:21:19;;;;;;;2.73;2.03;;;34.00;46.30;;;;;;10094561;28;20111;-55
2021/07/16 14:26:10;;;;;;;1.83;1.73;;;34.50;46.30;;;;;;10094589;28;20124;-57
2021/07/16 14:31:01;;;;;;;2.92;1.92;;;31.90;47.80;;;;;;10094337;28;20778;-56
2021/07/16 14:35:52;;;;;;;2.75;2.28;;;29.20;52.10;;;;;;10094493;28;20544;-57
2021/07/16 14:40:43;;;;;;;2.25;1.83;;;31.40;48.90;;;;;;10094192;28;20164;-57
2021/07/16 14:45:34;;;;;;;2.95;2.40;;;32.50;46.70;;;;;;10094721;28;20123;-56
2021/07/16 14:50:25;;;;;;;2.60;2.22;;;32.10;47.70;;;;;;10094907;28;20033;-53
2021/07/16 14:55:17;;;;;;;2.40;2.20;;;29.40;51.30;;;;;;10094638;28;20025;-52
2021/07/16 15:00:09;;;;;;;4.28;2.55;;;27.90;53.40;;;;;;10094166;28;20503;-55
2021/07/16 15:05:00;;;;;;;3.00;2.13;;;27.50;53.70;;;;;;10091966;28;20471;-56
2021/07/16 15:09:51;;;;;;;2.65;2.03;;;27.60;52.90;;;;;;10093189;28;20048;-56
2021/07/16 15:14:41;;;;;;;2.40;2.17;;;27.20;53.50;;;;;;10092370;28;20582;-55
2021/07/16 15:19:35;;;;;;;2.95;2.30;;;26.90;54.00;;;;;;10092686;28;20068;-51
2021/07/16 15:24:25;;;;;;;3.10;2.30;;;27.00;53.70;;;;;;10078632;28;20037;-51
2021/07/16 15:29:18;;;;;;;3.42;2.65;;;27.80;53.40;;;;;;10093993;28;20419;-51
2021/07/16 15:34:08;;;;;;;3.67;3.00;;;28.30;53.00;;;;;;10090779;28;20538;-54
2021/07/16 15:38:59;;;;;;;3.65;3.33;;;27.90;53.80;;;;;;10097459;28;20029;-53
2021/07/16 15:43:49;;;;;;;3.15;2.58;;;28.80;52.90;;;;;;10097696;28;20108;-53
2021/07/16 15:48:40;;;;;;;5.72;2.88;;;29.20;53.00;;;;;;10099013;28;20025;-53
2021/07/16 15:53:31;;;;;;;2.38;1.95;;;29.60;52.80;;;;;;10100924;28;20029;-53
2021/07/16 15:58:23;;;;;;;1.88;1.42;;;27.90;55.20;;;;;;10100366;28;20028;-54
2021/07/16 16:03:14;;;;;;;2.80;2.00;;;26.70;57.40;;;;;;10100816;28;20025;-54
2021/07/16 16:08:06;;;;;;;2.10;1.80;;;26.20;58.40;;;;;;10099839;28;20063;-53
2021/07/16 16:12:56;;;;;;;6.40;3.20;;;25.70;59.20;;;;;;10100209;28;20087;-53
2021/07/16 16:17:47;;;;;;;3.72;2.38;;;25.30;59.90;;;;;;10100146;28;20078;-52
2021/07/16 16:22:38;;;;;;;3.30;1.95;;;24.80;61.20;;;;;;10099331;28;20086;-54
2021/07/16 16:27:28;;;;;;;3.97;1.85;;;24.30;62.30;;;;;;10096900;28;20029;-57
2021/07/16 16:32:19;;;;;;;2.83;2.00;;;23.90;63.00;;;;;;10095837;28;20061;-53
2021/07/16 16:37:10;;;;;;;3.67;2.00;;;23.50;64.10;;;;;;10097400;28;20034;-55
2021/07/16 16:42:01;;;;;;;2.40;1.80;;;23.60;64.60;;;;;;10098469;28;20462;-55
2021/07/16 16:46:51;;;;;;;3.13;2.30;;;23.90;64.10;;;;;;10098700;28;20036;-52
2021/07/16 16:51:42;;;;;;;4.15;2.45;;;24.10;63.80;;;;;;10096836;28;20491;-52
2021/07/16 16:56:33;;;;;;;2.63;2.13;;;23.10;68.50;;;;;;10069713;28;20041;-56
2021/07/16 17:01:24;;;;;;;5.80;3.95;;;22.60;69.90;;;;;;10058389;28;20723;-55
2021/07/16 17:06:14;;;;;;;4.85;3.22;;;22.70;69.80;;;;;;10080992;28;20045;-54
2021/07/16 17:11:05;;;;;;;4.38;2.67;;;22.60;70.20;;;;;;10097630;28;20379;-56
2021/07/16 17:15:57;;;;;;;6.85;3.33;;;22.70;70.90;;;;;;10086838;28;20059;-53
2021/07/16 17:20:47;;;;;;;4.78;3.08;;;22.80;71.60;;;;;;10094527;28;20279;-58
2021/07/16 17:25:39;;;;;;;4.70;3.42;;;23.10;71.90;;;;;;10084355;28;20611;-54
2021/07/16 17:30:29;;;;;;;3.75;2.92;;;23.10;72.30;;;;;;10104208;28;20083;-54
2021/07/16 17:35:23;;;;;;;4.05;3.63;;;23.10;72.80;;;;;;10092745;28;20126;-51
2021/07/16 17:40:26;;;;;;;6.10;4.47;;;23.20;73.20;;;;;;10107662;28;20033;-51
2021/07/16 17:45:18;;;;;;;4.57;3.65;;;23.40;73.80;;;;;;10099989;28;20049;-55
2021/07/16 17:50:13;;;;;;;7.00;4.57;;;23.40;73.80;;;;;;10090473;28;20041;-49
2021/07/16 17:55:05;;;;;;;5.45;4.47;;;23.50;73.80;;;;;;10085831;28;20025;-51
2021/07/16 17:59:58;;;;;;;5.00;3.70;;;24.30;72.40;;;;;;10101407;28;20128;-54
2021/07/16 18:04:48;;;;;;;6.18;4.07;;;24.50;72.50;;;;;;10095894;28;20032;-54
2021/07/16 18:09:39;;;;;;;7.90;5.53;;;24.30;72.60;;;;;;10103795;28;20534;-56
2021/07/16 18:14:31;;;;;;;6.82;4.90;;;24.00;73.50;;;;;;10075690;28;20025;-57
2021/07/16 18:19:22;;;;;;;9.50;5.13;;;23.90;74.40;;;;;;10093686;28;20537;-54
2021/07/16 18:24:13;;;;;;;8.23;5.40;;;24.00;74.10;;;;;;10079992;28;20028;-57
2021/07/16 18:29:04;;;;;;;6.70;4.38;;;23.90;74.10;;;;;;10087670;28;20047;-52
2021/07/16 18:33:54;;;;;;;6.45;4.32;;;24.00;74.10;;;;;;10093692;28;20044;-52
2021/07/16 18:38:46;;;;;;;9.70;5.93;;;24.20;73.80;;;;;;10092211;28;20420;-51
2021/07/16 18:43:36;;;;;;;6.97;5.40;;;24.00;74.20;;;;;;10093729;28;20021;-49
2021/07/16 18:48:27;;;;;;;11.13;6.32;;;23.80;74.80;;;;;;10084508;28;20135;-53
2021/07/16 18:53:19;;;;;;;9.73;6.55;;;23.70;75.10;;;;;;10081667;28;20119;-54
2021/07/16 18:58:10;;;;;;;9.88;7.50;;;23.70;75.30;;;;;;10082525;28;20511;-56
2021/07/16 19:03:00;;;;;;;12.98;7.88;;;23.60;75.40;;;;;;10091263;28;20120;-54
2021/07/16 19:07:51;;;;;;;10.30;6.82;;;23.40;75.90;;;;;;10091474;28;20064;-55
2021/07/16 19:12:44;;;;;;;13.80;6.82;;;23.50;76.00;;;;;;10099809;28;20029;-53
2021/07/16 19:17:34;;;;;;;9.10;6.78;;;23.40;76.50;;;;;;10091232;28;20038;-55
2021/07/16 19:22:25;;;;;;;12.95;7.75;;;23.10;76.90;;;;;;10088648;28;20107;-52
2021/07/16 19:27:16;;;;;;;11.32;7.68;;;23.00;78.00;;;;;;10093908;28;20439;-53
2021/07/16 19:32:07;;;;;;;9.38;6.53;;;23.00;78.20;;;;;;10078203;28;20598;-51
2021/07/16 19:36:58;;;;;;;18.60;10.82;;;22.90;78.90;;;;;;10082514;28;20032;-56
2021/07/16 19:41:49;;;;;;;13.35;7.57;;;22.90;79.00;;;;;;10084846;28;20028;-54
2021/07/16 19:46:39;;;;;;;15.43;9.65;;;23.00;79.10;;;;;;10101836;28;20095;-54
2021/07/16 19:51:30;;;;;;;12.98;8.73;;;22.90;79.50;;;;;;10097476;28;20090;-55
2021/07/16 19:56:21;;;;;;;16.10;8.57;;;22.70;80.40;;;;;;10093070;28;20025;-54
2021/07/16 20:01:12;;;;;;;14.55;8.35;;;22.40;81.60;;;;;;10087319;28;20403;-58
2021/07/16 20:06:02;;;;;;;12.85;7.30;;;22.30;81.80;;;;;;10087772;28;20056;-59
2021/07/16 20:10:53;;;;;;;13.13;7.70;;;22.20;82.30;;;;;;10079479;28;20208;-71
2021/07/16 20:15:44;;;;;;;14.07;7.93;;;22.10;82.70;;;;;;10076644;28;20040;-53
2021/07/16 20:20:35;;;;;;;13.85;8.25;;;22.10;83.00;;;;;;10095224;28;20102;-52
2021/07/16 20:25:26;;;;;;;11.55;7.13;;;22.00;83.00;;;;;;10094870;28;20025;-51
2021/07/16 20:30:17;;;;;;;12.27;6.75;;;21.90;83.20;;;;;;10097623;28;20033;-51
2021/07/16 20:35:11;;;;;;;11.68;7.72;;;21.80;82.80;;;;;;10099356;28;20025;-52
2021/07/16 20:40:05;;;;;;;13.80;8.50;;;21.70;83.00;;;;;;10098750;28;20033;-51
2021/07/16 20:44:56;;;;;;;14.00;8.13;;;21.90;82.10;;;;;;10098300;28;20112;-53
2021/07/16 20:49:47;;;;;;;16.17;8.10;;;21.90;82.20;;;;;;10097478;28;20929;-52
2021/07/16 20:54:39;;;;;;;15.55;9.10;;;21.70;82.30;;;;;;10098296;28;20399;-52
2021/07/16 20:59:29;;;;;;;15.57;9.00;;;21.60;82.40;;;;;;10098353;28;20021;-53
2021/07/16 21:04:20;;;;;;;17.17;8.45;;;21.60;82.40;;;;;;10097807;28;20109;-54
2021/07/16 21:09:11;;;;;;;14.85;9.85;;;21.50;82.50;;;;;;10098273;28;20106;-52
2021/07/16 21:14:02;;;;;;;15.20;9.00;;;21.60;82.00;;;;;;10096135;28;20461;-54
2021/07/16 21:18:52;;;;;;;11.68;8.10;;;21.50;82.10;;;;;;10098457;28;20120;-52
2021/07/16 21:23:43;;;;;;;13.25;7.22;;;21.40;82.30;;;;;;10097669;28;20027;-54
2021/07/16 21:28:34;;;;;;;14.00;8.93;;;21.40;82.50;;;;;;10096800;28;20704;-52
2021/07/16 21:33:26;;;;;;;18.35;9.35;;;21.30;82.30;;;;;;10096848;28;20375;-52
2021/07/16 21:38:17;;;;;;;14.82;8.75;;;21.40;82.30;;;;;;10096669;28;20086;-52
2021/07/16 21:43:07;;;;;;;14.82;9.38;;;21.30;82.50;;;;;;10095804;28;20446;-52
2021/07/16 21:47:58;;;;;;;18.42;9.32;;;21.40;82.10;;;;;;10095566;28;20063;-52
2021/07/16 21:52:49;;;;;;;16.58;10.30;;;21.10;82.40;;;;;;10103651;28;20071;-58
2021/07/16 21:57:40;;;;;;;17.52;9.30;;;21.10;82.60;;;;;;10100816;28;20035;-52
2021/07/16 22:02:31;;;;;;;15.95;9.63;;;20.90;82.70;;;;;;10095528;28;20414;-53
2021/07/16 22:07:23;;;;;;;15.13;9.30;;;20.80;82.90;;;;;;10095160;28;20128;-52
2021/07/16 22:12:13;;;;;;;19.15;12.50;;;20.80;83.10;;;;;;10094974;28;20040;-54
2021/07/16 22:17:04;;;;;;;18.25;9.73;;;20.80;82.60;;;;;;10095408;28;20040;-49
2021/07/16 22:21:55;;;;;;;16.33;9.85;;;20.80;83.00;;;;;;10094514;28;20083;-53
2021/07/16 22:26:46;;;;;;;14.88;9.30;;;20.80;82.90;;;;;;10093377;28;20039;-53
2021/07/16 22:31:37;;;;;;;13.60;9.48;;;20.60;83.20;;;;;;10092980;28;20021;-54
2021/07/16 22:36:28;;;;;;;15.90;8.77;;;20.70;83.40;;;;;;10094194;28;20029;-52
2021/07/16 22:41:18;;;;;;;18.00;10.73;;;20.60;83.30;;;;;;10100508;28;20518;-54
2021/07/16 22:46:09;;;;;;;16.67;10.10;;;20.50;83.20;;;;;;10052853;28;20061;-53
2021/07/16 22:51:00;;;;;;;18.10;10.40;;;20.50;83.20;;;;;;10053962;28;20039;-53
2021/07/16 22:55:50;;;;;;;17.75;9.57;;;20.30;83.60;;;;;;10054607;28;20029;-52
2021/07/16 23:00:41;;;;;;;17.67;9.50;;;20.50;83.40;;;;;;10053848;28;20045;-53
2021/07/16 23:05:32;;;;;;;15.77;9.90;;;20.50;83.30;;;;;;10053453;28;20110;-51
2021/07/16 23:10:22;;;;;;;19.10;9.45;;;20.50;83.10;;;;;;10053768;28;20034;-53
2021/07/16 23:15:13;;;;;;;18.95;11.23;;;20.50;83.60;;;;;;10053407;28;20104;-52
2021/07/16 23:20:06;;;;;;;21.92;10.70;;;20.50;83.30;;;;;;10060183;28;20456;-54
2021/07/16 23:24:57;;;;;;;22.63;11.65;;;20.30;83.50;;;;;;10090069;28;20311;-54
2021/07/16 23:29:48;;;;;;;21.40;11.90;;;20.20;83.60;;;;;;10090459;28;20422;-52
2021/07/16 23:34:38;;;;;;;20.58;11.80;;;20.10;83.80;;;;;;10093079;28;20573;-55
2021/07/16 23:39:29;;;;;;;21.02;11.07;;;20.10;83.50;;;;;;10093231;28;20324;-52
2021/07/16 23:44:20;;;;;;;18.55;10.75;;;20.20;83.40;;;;;;10092432;28;20021;-54
2021/07/16 23:49:10;;;;;;;17.70;11.07;;;20.10;83.50;;;;;;10094831;28;20047;-51
2021/07/16 23:54:01;;;;;;;20.15;10.57;;;20.10;83.30;;;;;;10100247;28;20367;-53
2021/07/16 23:58:52;;;;;;;18.88;10.55;;;20.00;83.70;;;;;;10100092;28;20059;-52
